Flight Track Log - Related Links

Times and Time Zones

All times are in EDT time to prevent confusion due to time zone crossing. See the KAP444 flight status page for this flight to view local times or setup timezone preferences in your user account.

Time Position Orientation Groundspeed Altitude Reporting Facility
EDT Latitude Longitude Course Direction KTS MPH feet Rate Location/Type
Sun 05:35:14 PM 43.5708 -74.4403 148° Southeast 169 194 7,600  Level Boston Center
Sun 05:36:14 PM 43.5317 -74.4103 151° Southeast 169 194 7,600  Level Boston Center
Sun 05:37:14 PM 43.4928 -74.3778 149° Southeast 169 194 7,600  Level Boston Center
Sun 05:37:48 PM 43.4700 -74.3656 159° South 166 191 7,600  Level Boston Center
Sun 05:38:14 PM 43.4536 -74.3478 142° Southeast 169 194 7,600  Level Boston Center
Sun 05:38:37 PM 43.4392 -74.3417 163° South 164 189 7,600  Level Boston Center
Sun 05:39:14 PM 43.4167 -74.3122 136° Southeast 169 194 7,600  Level Boston Center
Sun 05:39:37 PM 43.4022 -74.2975 143° Southeast 162 186 7,600  Level Boston Center
Sun 05:40:00 PM 43.4334 -74.3764 148° Southeast  Level Estimated
Sun 05:40:14 PM 43.3797 -74.2742 143° Southeast 164 189 7,600  Level Boston Center
Sun 05:40:38 PM 43.3653 -74.2650 155° Southeast 162 186 7,500 -353 Descending Boston Center
Sun 05:41:39 PM 43.3283 -74.2239 141° Southeast 170 196 7,100 -313 Descending Boston Center
Sun 05:42:14 PM 43.3039 -74.1975 142° Southeast 171 197 7,000 -200 Descending Boston Center
Sun 05:42:39 PM 43.2894 -74.1858 150° Southeast 175 201 6,900 -200 Descending Boston Center
Sun 05:43:14 PM 43.2628 -74.1592 144° Southeast 171 197 6,800 -327 Descending Boston Center
Sun 05:43:34 PM 43.2506 -74.1475 145° Southeast 176 203 6,600 -500 Descending Boston Center
Sun 05:44:14 PM 43.2239 -74.1183 141° Southeast 177 204 6,300 -393 Descending Boston Center
Sun 05:44:35 PM 43.2114 -74.1067 146° Southeast 181 208 6,200 -500 Descending Boston Center
Sun 05:45:14 PM 43.1828 -74.0772 143° Southeast 182 209 5,800 -590 Descending Boston Center
Sun 05:45:36 PM 43.1703 -74.0656 146° Southeast 184 212 5,600 -500 Descending Boston Center
Sun 05:46:14 PM 43.1436 -74.0394 144° Southeast 182 209 5,300 -444 Descending Boston Center
Sun 05:46:30 PM 43.1356 -74.0278 133° Southeast 176 203 5,200 -600 Descending Boston Center
Sun 05:47:14 PM 43.1047 -73.9956 143° Southeast 177 204 4,700 -590 Descending Boston Center
Sun 05:47:31 PM 43.0983 -73.9897 146° Southeast 172 198 4,600 -500 Descending Boston Center
Sun 05:48:14 PM 43.0678 -73.9550 140° Southeast 177 204 4,200 -590 Descending Boston Center
Sun 05:48:32 PM 43.0614 -73.9461 135° Southeast 173 199 4,000 -400 Descending Boston Center
Sun 05:49:14 PM 43.0350 -73.9086 134° Southeast 177 204 3,800 -295 Descending Boston Center
Sun 05:49:33 PM 43.0247 -73.8942 134° Southeast 171 197 3,700 -300 Descending Boston Center
Sun 05:50:14 PM 43.0022 -73.8653 137° Southeast 177 204 3,500 -265 Descending Boston Center
Sun 05:50:41 PM 42.9897 -73.8508 140° Southeast 165 190 3,400 -400 Descending Boston Center
Sun 05:51:14 PM 42.9650 -73.8247 142° Southeast 172 198 3,100 -407 Descending Boston Center
Sun 05:51:40 PM 42.9486 -73.8131 152° Southeast 168 193 3,000 -200 Descending Boston Center
Sun 05:52:14 PM 42.9281 -73.7869 137° Southeast 172 198 2,900 -295 Descending Boston Center
Sun 05:52:41 PM 42.9136 -73.7725 144° Southeast 168 193 2,700 -341 Descending Boston Center
Sun 05:53:42 PM 42.8742 -73.7575 164° South 167 192 2,400 -295 Descending Boston Center
Sun 05:54:43 PM 42.8342 -73.7906 211° Southwest 142 163 2,100 -593 Descending Boston Center
Sun 05:56:00 PM 42.7835 -73.7953 184° South  Level FlightAware Approximate
Sun 05:56:44 PM 42.7694 -73.8089 184° South 111 128 600  Level Boston Center
Sun 05:59:00 PM 42.7491 -73.8020 180° South  Level Estimated
Sun 06:26:04 PM 42.7131 -73.8106 193° South 111 128 1,400  Level Boston Center
Sun 06:27:05 PM 42.7106 -73.8528 265° West 130 150 2,400 934 Climbing Boston Center
Sun 06:28:06 PM 42.7414 -73.8875 320° Northwest 143 165 3,300 744 Climbing Boston Center
Sun 06:29:06 PM 42.7722 -73.9167 325° Northwest 137 158 3,900 645 Climbing Boston Center
Sun 06:30:07 PM 42.8053 -73.9428 330° Northwest 141 162 4,600 656 Climbing Boston Center
Sun 06:31:14 PM 42.8422 -73.9778 325° Northwest 138 159 5,300 492 Climbing Boston Center
Sun 06:32:09 PM 42.8711 -74.0011 329° Northwest 144 166 5,600 545 Climbing Boston Center
Sun 06:33:15 PM 42.9122 -74.0361 328° Northwest 147 169 6,400 661 Climbing Boston Center
Sun 06:34:16 PM 42.9431 -74.0653 325° Northwest 140 161 7,000 672 Climbing Boston Center
Sun 06:35:11 PM 42.9719 -74.0917 326° Northwest 136 157 7,700 623 Climbing Boston Center
Sun 06:36:02 PM 42.9967 -74.1122 329° Northwest 131 151 8,100 432 Climbing Boston Center
Sun 06:37:02 PM 43.0233 -74.1383 324° Northwest 136 157 8,500 250 Climbing Boston Center
Sun 06:38:02 PM 43.0603 -74.1792 321° Northwest 155 178 8,600 50 Climbing Boston Center
Sun 06:39:02 PM 43.0953 -74.2086 328° Northwest 167 192 8,600  Level Boston Center
Sun 06:40:02 PM 43.1383 -74.2497 325° Northwest 167 192 8,600  Level Boston Center
Sun 06:41:02 PM 43.1756 -74.2792 330° Northwest 167 192 8,600  Level Boston Center
Sun 06:42:02 PM 43.2147 -74.3061 333° Northwest 167 192 8,600  Level Boston Center
Sun 06:43:02 PM 43.2600 -74.3361 334° Northwest 167 192 8,600 -50 Level Boston Center
Sun 06:44:02 PM 43.3053 -74.3744 328° Northwest 167 192 8,500 -50 Descending Boston Center
Sun 06:45:02 PM 43.3403 -74.4014 331° Northwest 167 192 8,500  Level Boston Center
Sun 06:46:02 PM 43.3833 -74.4369 329° Northwest 161 185 8,500  Level Boston Center
Sun 06:47:02 PM 43.4203 -74.4725 325° Northwest 161 185 8,500  Level Boston Center
Sun 06:48:02 PM 43.4614 -74.4967 337° Northwest 161 185 8,500  Level Boston Center
Sun 06:49:02 PM 43.5006 -74.5239 333° Northwest 161 185 8,500  Level Boston Center
Sun 06:50:14 PM 43.5394 -74.5567 329° Northwest 161 185 8,500  Level Boston Center
Sun 06:51:14 PM 43.5889 -74.5928 332° Northwest 167 192 8,500  Level Boston Center
Sun 06:52:14 PM 43.6239 -74.6169 333° Northwest 167 192 8,500  Level Boston Center
Sun 06:53:14 PM 43.6711 -74.6561 329° Northwest 167 192 8,500  Level Boston Center
Sun 06:55:14 PM 43.7511 -74.7167 331° Northwest 167 192 8,500  Level Boston Center
Sun 06:56:14 PM 43.7942 -74.7528 329° Northwest 167 192 8,500  Level Boston Center
Sun 06:57:14 PM 43.8353 -74.7831 332° Northwest 167 192 8,500 -50 Level Boston Center
Sun 06:58:14 PM 43.8761 -74.8164 330° Northwest 167 192 8,400 -50 Descending Boston Center
Sun 06:59:14 PM 43.9214 -74.8497 332° Northwest 172 198 8,400  Level Boston Center
Sun 07:02:14 PM 44.0483 -74.9561 329° Northwest 177 204 8,400 -100 Level Boston Center
Sun 07:03:14 PM 44.0853 -74.9836 332° Northwest 177 204 8,000 -400 Descending Boston Center
Sun 07:04:14 PM 44.1406 -75.0264 331° Northwest 182 209 7,600 -400 Descending Boston Center
Sun 07:05:14 PM 44.1878 -75.0633 331° Northwest 182 209 7,200 -400 Descending Boston Center
Sun 07:06:14 PM 44.2328 -75.1000 330° Northwest 182 209 6,800 -450 Descending Boston Center
Sun 07:07:14 PM 44.2778 -75.1339 332° Northwest 182 209 6,300 -500 Descending Boston Center
Sun 07:08:14 PM 44.3206 -75.1708 328° Northwest 182 209 5,800 -600 Descending Boston Center
Sun 07:09:14 PM 44.3656 -75.2047 332° Northwest 182 209 5,100 -550 Descending Boston Center
Sun 07:10:14 PM 44.4108 -75.2358 334° Northwest 182 209 4,700 -500 Descending Boston Center
Sun 07:11:14 PM 44.4536 -75.2700 330° Northwest 177 204 4,100 -600 Descending Boston Center

Login

Don't have an account? Register now (free) for customized features, flight alerts, and more!